createdAt,value
2019-01-16T00:00:12.346Z,7.20
2019-01-16T00:04:25.861Z,7.10
2019-01-16T00:08:39.544Z,7.10
2019-01-16T00:12:58.012Z,7.10
2019-01-16T00:17:21.477Z,7.10
2019-01-16T00:21:35.038Z,7.20
2019-01-16T00:25:47.513Z,7.20
2019-01-16T00:30:02.918Z,7.20
2019-01-16T00:34:19.441Z,7.20
2019-01-16T00:38:33.124Z,7.20
2019-01-16T00:42:47.591Z,7.10
2019-01-16T00:47:04.921Z,7.10
2019-01-16T00:51:21.345Z,7.10
2019-01-16T00:55:41.834Z,7.10
2019-01-16T01:00:00.365Z,7.10
2019-01-16T01:04:15.654Z,7.10
2019-01-16T01:10:32.164Z,7.10
2019-01-16T01:14:59.602Z,7.10
2019-01-16T01:19:17.861Z,7.00
2019-01-16T01:23:35.323Z,7.00
2019-01-16T01:27:47.804Z,7.00
2019-01-16T01:33:01.023Z,7.10
2019-01-16T01:37:20.389Z,7.10
2019-01-16T01:41:34.029Z,7.10
2019-01-16T01:45:47.597Z,7.00
2019-01-16T01:50:07.140Z,7.10
2019-01-16T01:55:20.087Z,7.10
2019-01-16T01:59:33.769Z,7.10
2019-01-16T02:03:47.421Z,7.10
2019-01-16T02:08:03.998Z,7.00
2019-01-16T02:12:31.470Z,7.00
2019-01-16T02:16:45.061Z,7.00
2019-01-16T02:21:28.809Z,7.00
2019-01-16T02:25:42.258Z,7.00
2019-01-16T02:29:55.581Z,7.00
2019-01-16T02:34:11.050Z,6.90
2019-01-16T02:38:25.435Z,7.00
2019-01-16T02:42:54.840Z,7.00
2019-01-16T02:47:07.326Z,6.90
2019-01-16T02:51:23.735Z,7.00
2019-01-16T02:55:37.330Z,6.90
2019-01-16T02:59:51.720Z,6.90
2019-01-16T03:04:04.202Z,7.00
2019-01-16T03:08:16.722Z,7.00
2019-01-16T03:12:30.050Z,7.00
2019-01-16T03:18:46.647Z,6.90
2019-01-16T03:23:35.291Z,6.90
2019-01-16T03:27:50.662Z,6.80
2019-01-16T03:32:06.200Z,6.80
2019-01-16T03:37:20.187Z,6.70
2019-01-16T03:42:39.196Z,6.70
2019-01-16T03:46:55.650Z,6.60
2019-01-16T03:51:11.011Z,6.60
2019-01-16T03:55:24.491Z,6.60
2019-01-16T03:59:36.966Z,6.60
2019-01-16T04:03:50.698Z,6.50
2019-01-16T04:08:14.277Z,6.60
2019-01-16T04:12:29.669Z,6.60
2019-01-16T04:21:12.430Z,6.60
2019-01-16T04:26:01.186Z,6.50
2019-01-16T04:30:14.866Z,6.50
2019-01-16T04:34:29.206Z,6.60
2019-01-16T04:38:42.815Z,6.50
2019-01-16T04:42:58.212Z,6.50
2019-01-16T04:48:11.285Z,6.60
2019-01-16T04:52:25.013Z,6.60
2019-01-16T04:56:52.420Z,6.60
2019-01-16T05:01:09.736Z,6.60
2019-01-16T05:05:24.081Z,6.60
2019-01-16T05:09:40.590Z,6.60
2019-01-16T05:13:58.174Z,6.60
2019-01-16T05:18:43.682Z,6.60
2019-01-16T05:23:02.086Z,6.70
2019-01-16T05:27:15.803Z,6.70
2019-01-16T05:31:29.539Z,6.70
2019-01-16T05:35:41.998Z,6.80
2019-01-16T05:39:55.596Z,6.70
2019-01-16T05:44:08.959Z,6.70
2019-01-16T05:48:22.603Z,6.70
2019-01-16T05:52:39.985Z,6.70
2019-01-16T05:56:57.533Z,6.80
2019-01-16T06:01:14.082Z,6.80
2019-01-16T06:05:27.344Z,6.80
2019-01-16T06:09:41.614Z,6.80
2019-01-16T06:14:10.052Z,6.80
2019-01-16T06:18:25.350Z,6.80
2019-01-16T06:23:37.485Z,6.80
2019-01-16T06:29:53.293Z,6.80
2019-01-16T06:34:08.823Z,6.80
2019-01-16T06:40:30.965Z,6.80
2019-01-16T06:44:44.659Z,6.80
2019-01-16T06:48:57.966Z,6.80
2019-01-16T06:53:11.198Z,6.80
2019-01-16T06:57:23.671Z,6.70
2019-01-16T07:01:57.407Z,6.70
2019-01-16T07:06:11.134Z,6.70
2019-01-16T07:10:24.461Z,6.80
2019-01-16T07:14:38.855Z,6.80
2019-01-16T07:18:55.200Z,6.80
2019-01-16T07:23:08.751Z,6.70
2019-01-16T07:27:23.238Z,6.70
2019-01-16T07:31:38.573Z,6.70
2019-01-16T07:36:06.176Z,6.80
2019-01-16T07:40:20.602Z,6.80
2019-01-16T07:44:35.975Z,6.70
2019-01-16T07:48:48.457Z,6.70
2019-01-16T07:53:01.753Z,6.70
2019-01-16T07:57:15.215Z,6.70
2019-01-16T08:01:30.574Z,6.70
2019-01-16T08:05:44.169Z,6.70
2019-01-16T08:10:12.830Z,6.70
2019-01-16T08:14:28.177Z,6.70
2019-01-16T08:18:45.528Z,6.70
2019-01-16T08:22:58.831Z,6.70
2019-01-16T08:27:11.330Z,6.70
2019-01-16T08:31:30.878Z,6.70
2019-01-16T08:35:45.363Z,6.80
2019-01-16T08:40:56.277Z,6.70
2019-01-16T08:45:40.966Z,6.80
2019-01-16T08:49:56.508Z,6.80
2019-01-16T08:56:14.210Z,6.80
2019-01-16T09:00:27.913Z,6.80
2019-01-16T09:04:41.409Z,6.70
2019-01-16T09:17:23.558Z,6.80
2019-01-16T09:21:51.001Z,6.70
2019-01-16T09:26:35.747Z,6.70
2019-01-16T09:30:49.329Z,6.70
2019-01-16T09:35:14.934Z,6.70
2019-01-16T09:41:31.910Z,6.80
2019-01-16T09:45:53.489Z,6.80
2019-01-16T09:50:09.003Z,6.80
2019-01-16T09:54:27.589Z,6.80
2019-01-16T09:59:14.261Z,6.70
2019-01-16T10:03:32.866Z,6.70
2019-01-16T10:07:56.401Z,6.80
2019-01-16T10:12:10.007Z,6.80
2019-01-16T10:17:26.187Z,6.80
2019-01-16T10:21:40.625Z,6.80
2019-01-16T10:25:54.364Z,6.80
2019-01-16T10:34:52.358Z,6.80
2019-01-16T10:39:11.873Z,6.70
2019-01-16T10:43:31.370Z,6.80
2019-01-16T10:47:45.708Z,6.80
2019-01-16T10:54:05.210Z,6.80
2019-01-16T10:58:18.780Z,6.80
2019-01-16T11:02:31.286Z,6.90
2019-01-16T11:07:20.173Z,6.80
2019-01-16T11:11:40.625Z,7.00
2019-01-16T11:16:24.409Z,7.00
2019-01-16T11:20:38.758Z,7.00
2019-01-16T11:24:56.232Z,7.00
2019-01-16T11:29:09.855Z,7.00
2019-01-16T11:33:25.269Z,7.00
2019-01-16T11:37:40.692Z,7.00
2019-01-16T11:41:56.194Z,6.90
2019-01-16T11:46:08.707Z,7.00
2019-01-16T11:50:27.221Z,7.00
2019-01-16T11:56:42.734Z,7.00
2019-01-16T12:01:53.795Z,7.00
2019-01-16T12:10:22.501Z,7.00
2019-01-16T12:14:35.917Z,7.00
2019-01-16T12:18:49.684Z,7.00
2019-01-16T12:23:04.191Z,6.90
2019-01-16T12:27:17.849Z,7.00
2019-01-16T12:31:36.229Z,6.90
2019-01-16T12:35:49.863Z,6.90
2019-01-16T12:40:04.332Z,6.90
2019-01-16T12:45:17.546Z,6.90
2019-01-16T12:49:30.040Z,6.90
2019-01-16T12:53:47.485Z,6.80
2019-01-16T12:58:01.176Z,6.90
2019-01-16T13:02:14.915Z,6.90
2019-01-16T13:06:40.423Z,6.90
2019-01-16T13:10:54.158Z,6.80
2019-01-16T13:15:07.514Z,6.80
2019-01-16T13:19:20.946Z,6.90
2019-01-16T13:23:34.449Z,6.80
2019-01-16T13:27:47.930Z,6.80
2019-01-16T13:32:01.350Z,6.80
2019-01-16T13:36:16.701Z,6.80
2019-01-16T13:40:30.288Z,6.80
2019-01-16T13:44:44.717Z,6.80
2019-01-16T13:49:01.228Z,6.80
2019-01-16T13:53:13.686Z,6.80
2019-01-16T13:57:31.242Z,6.80
2019-01-16T14:01:44.602Z,6.70
2019-01-16T14:06:12.227Z,6.80
2019-01-16T14:10:25.717Z,6.80
2019-01-16T14:14:39.162Z,6.80
2019-01-16T14:18:52.622Z,6.80
2019-01-16T14:23:05.109Z,6.70
2019-01-16T14:27:18.685Z,6.80
2019-01-16T14:32:34.733Z,6.80
2019-01-16T14:36:52.098Z,6.70
2019-01-16T14:41:05.414Z,6.70
2019-01-16T14:45:19.212Z,6.70
2019-01-16T14:49:32.894Z,6.70
2019-01-16T14:53:54.276Z,6.70
2019-01-16T15:02:24.986Z,6.60
2019-01-16T15:06:58.636Z,6.70
2019-01-16T15:12:09.738Z,6.70
2019-01-16T15:16:29.208Z,6.70
2019-01-16T15:20:45.638Z,6.60
2019-01-16T15:25:06.022Z,6.60
2019-01-16T15:29:26.612Z,6.60
2019-01-16T15:33:40.195Z,6.50
2019-01-16T15:37:55.570Z,6.50
2019-01-16T15:42:09.923Z,6.60
2019-01-16T15:46:22.421Z,6.50
2019-01-16T15:50:36.130Z,6.50
2019-01-16T15:59:06.102Z,6.50
2019-01-16T16:03:33.730Z,6.50
2019-01-16T16:07:48.129Z,6.40
2019-01-16T16:12:06.371Z,6.50
2019-01-16T16:16:19.987Z,6.40
2019-01-16T16:22:35.605Z,6.40
2019-01-16T16:26:49.013Z,6.40
2019-01-16T16:33:06.243Z,6.30
2019-01-16T16:37:23.557Z,6.30
2019-01-16T16:41:39.941Z,6.20
2019-01-16T16:45:53.659Z,6.20
2019-01-16T16:50:06.158Z,6.10
2019-01-16T16:55:19.108Z,6.10
2019-01-16T16:59:34.377Z,6.10
2019-01-16T17:05:50.294Z,6.00
2019-01-16T17:10:02.833Z,6.00
2019-01-16T17:14:19.336Z,6.00
2019-01-16T17:18:39.259Z,6.00
2019-01-16T17:22:49.429Z,6.00
2019-01-16T17:27:35.290Z,6.00
2019-01-16T17:32:46.317Z,6.00
2019-01-16T17:37:13.802Z,6.00
2019-01-16T17:41:27.186Z,6.00
2019-01-16T17:46:13.878Z,6.10
2019-01-16T17:50:27.613Z,6.10
2019-01-16T17:55:39.586Z,6.10
2019-01-16T18:00:23.218Z,6.10
2019-01-16T18:10:55.421Z,6.10
2019-01-16T18:15:09.106Z,6.10
2019-01-16T18:19:21.582Z,6.10
2019-01-16T18:23:35.177Z,6.10
2019-01-16T18:27:50.632Z,6.10
2019-01-16T18:32:07.063Z,6.20
2019-01-16T18:36:20.537Z,6.20
2019-01-16T18:40:33.881Z,6.20
2019-01-16T18:44:47.365Z,6.20
2019-01-16T18:49:59.157Z,6.20
2019-01-16T18:54:12.869Z,6.20
2019-01-16T18:58:27.239Z,6.10
2019-01-16T19:02:40.802Z,6.20
2019-01-16T19:06:57.181Z,6.20
2019-01-16T19:13:15.955Z,6.30
2019-01-16T19:17:31.290Z,6.20
2019-01-16T19:21:44.668Z,6.20
2019-01-16T19:26:28.297Z,6.20
2019-01-16T19:30:41.820Z,6.20
2019-01-16T19:35:26.487Z,6.20
2019-01-16T19:41:43.528Z,6.30
2019-01-16T19:48:00.367Z,6.30
2019-01-16T19:52:15.816Z,6.20
2019-01-16T19:56:34.334Z,6.20
2019-01-16T20:00:47.889Z,6.20
2019-01-16T20:05:01.298Z,6.20
2019-01-16T20:09:15.692Z,6.30
2019-01-16T20:13:33.066Z,6.30
2019-01-16T20:17:46.668Z,6.30
2019-01-16T20:22:00.197Z,6.20
2019-01-16T20:26:12.698Z,6.30
2019-01-16T20:30:29.251Z,6.30
2019-01-16T20:34:45.618Z,6.30
2019-01-16T20:38:59.305Z,6.20
2019-01-16T20:43:14.873Z,6.20
2019-01-16T20:47:28.366Z,6.20
2019-01-16T20:51:41.963Z,6.10
2019-01-16T20:57:57.741Z,6.20
2019-01-16T21:02:11.448Z,6.30
2019-01-16T21:07:28.293Z,6.20
2019-01-16T21:11:41.922Z,6.20
2019-01-16T21:17:57.511Z,6.20
2019-01-16T21:22:13.893Z,6.20
2019-01-16T21:26:27.493Z,6.20
2019-01-16T21:34:57.495Z,6.20
2019-01-16T21:41:17.691Z,6.10
2019-01-16T21:47:36.740Z,6.20
2019-01-16T21:51:50.250Z,6.20
2019-01-16T21:56:06.761Z,6.20
2019-01-16T22:00:25.035Z,6.20
2019-01-16T22:04:38.781Z,6.30
2019-01-16T22:08:52.281Z,6.30
2019-01-16T22:13:05.811Z,6.30
2019-01-16T22:19:24.697Z,6.30
2019-01-16T22:23:56.267Z,6.30
2019-01-16T22:28:11.663Z,6.30
2019-01-16T22:32:33.120Z,6.30
2019-01-16T22:36:45.610Z,6.20
2019-01-16T22:43:05.838Z,6.30
2019-01-16T22:47:22.143Z,6.30
2019-01-16T22:51:35.622Z,6.20
2019-01-16T22:56:20.410Z,6.20
2019-01-16T23:00:38.767Z,6.20
2019-01-16T23:04:52.429Z,6.10
2019-01-16T23:09:05.886Z,6.20
2019-01-16T23:13:50.870Z,6.20
2019-01-16T23:18:06.297Z,6.10
2019-01-16T23:22:20.670Z,6.00
2019-01-16T23:26:54.450Z,6.00
2019-01-16T23:31:44.239Z,5.90
2019-01-16T23:35:58.003Z,5.90
2019-01-16T23:40:20.645Z,5.80
2019-01-16T23:44:38.114Z,5.90
2019-01-16T23:48:51.822Z,5.90
2019-01-16T23:53:06.366Z,5.90
2019-01-16T23:57:20.816Z,5.90
